sensor_id;sensor_type;location;lat;lon;timestamp;P1;durP1;ratioP1;P2;durP2;ratioP2
23179;SDS011;11758;45.756;11.432;2023-03-23T00:01:37;36.35;;;21.35;;
23179;SDS011;11758;45.756;11.432;2023-03-23T00:04:04;41.08;;;22.65;;
23179;SDS011;11758;45.756;11.432;2023-03-23T00:06:30;36.40;;;22.80;;
23179;SDS011;11758;45.756;11.432;2023-03-23T00:08:58;38.63;;;22.42;;
23179;SDS011;11758;45.756;11.432;2023-03-23T00:11:28;37.45;;;21.83;;
23179;SDS011;11758;45.756;11.432;2023-03-23T00:13:56;39.10;;;23.40;;
23179;SDS011;11758;45.756;11.432;2023-03-23T00:16:24;45.63;;;25.15;;
23179;SDS011;11758;45.756;11.432;2023-03-23T00:19:04;40.40;;;22.98;;
23179;SDS011;11758;45.756;11.432;2023-03-23T00:21:32;32.95;;;21.73;;
23179;SDS011;11758;45.756;11.432;2023-03-23T00:24:05;38.88;;;23.33;;
23179;SDS011;11758;45.756;11.432;2023-03-23T00:26:42;38.13;;;22.35;;
23179;SDS011;11758;45.756;11.432;2023-03-23T00:29:16;38.50;;;22.80;;
23179;SDS011;11758;45.756;11.432;2023-03-23T00:31:44;37.55;;;23.25;;
23179;SDS011;11758;45.756;11.432;2023-03-23T00:34:14;35.95;;;22.73;;
23179;SDS011;11758;45.756;11.432;2023-03-23T00:36:44;37.45;;;22.70;;
23179;SDS011;11758;45.756;11.432;2023-03-23T00:39:10;41.60;;;24.52;;
23179;SDS011;11758;45.756;11.432;2023-03-23T00:41:36;42.13;;;24.02;;
23179;SDS011;11758;45.756;11.432;2023-03-23T00:44:03;40.72;;;23.48;;
23179;SDS011;11758;45.756;11.432;2023-03-23T00:46:29;37.97;;;22.08;;
23179;SDS011;11758;45.756;11.432;2023-03-23T00:48:56;43.30;;;25.10;;
23179;SDS011;11758;45.756;11.432;2023-03-23T00:51:23;38.85;;;23.52;;
23179;SDS011;11758;45.756;11.432;2023-03-23T00:53:49;41.67;;;23.33;;
23179;SDS011;11758;45.756;11.432;2023-03-23T00:56:15;40.10;;;22.92;;
23179;SDS011;11758;45.756;11.432;2023-03-23T00:58:42;41.58;;;24.30;;
23179;SDS011;11758;45.756;11.432;2023-03-23T01:01:08;40.85;;;24.55;;
23179;SDS011;11758;45.756;11.432;2023-03-23T01:03:34;41.22;;;25.35;;
23179;SDS011;11758;45.756;11.432;2023-03-23T01:06:05;44.42;;;24.67;;
23179;SDS011;11758;45.756;11.432;2023-03-23T01:08:33;41.22;;;23.88;;
23179;SDS011;11758;45.756;11.432;2023-03-23T01:11:05;40.08;;;24.90;;
23179;SDS011;11758;45.756;11.432;2023-03-23T01:13:31;38.45;;;23.40;;
23179;SDS011;11758;45.756;11.432;2023-03-23T01:15:58;40.28;;;24.05;;
23179;SDS011;11758;45.756;11.432;2023-03-23T01:18:24;37.70;;;22.83;;
23179;SDS011;11758;45.756;11.432;2023-03-23T01:20:50;38.33;;;22.60;;
23179;SDS011;11758;45.756;11.432;2023-03-23T01:23:16;35.90;;;22.25;;
23179;SDS011;11758;45.756;11.432;2023-03-23T01:25:42;38.88;;;23.75;;
23179;SDS011;11758;45.756;11.432;2023-03-23T01:28:10;40.63;;;24.45;;
23179;SDS011;11758;45.756;11.432;2023-03-23T01:30:36;41.55;;;23.92;;
23179;SDS011;11758;45.756;11.432;2023-03-23T01:33:03;45.67;;;23.95;;
23179;SDS011;11758;45.756;11.432;2023-03-23T01:35:29;40.22;;;24.25;;
23179;SDS011;11758;45.756;11.432;2023-03-23T01:37:55;39.30;;;23.42;;
23179;SDS011;11758;45.756;11.432;2023-03-23T01:40:21;43.47;;;24.92;;
23179;SDS011;11758;45.756;11.432;2023-03-23T01:42:47;44.30;;;26.02;;
23179;SDS011;11758;45.756;11.432;2023-03-23T01:47:46;39.50;;;24.52;;
23179;SDS011;11758;45.756;11.432;2023-03-23T01:50:12;41.30;;;23.40;;
23179;SDS011;11758;45.756;11.432;2023-03-23T01:52:38;40.42;;;23.73;;
23179;SDS011;11758;45.756;11.432;2023-03-23T01:55:05;42.42;;;24.48;;
23179;SDS011;11758;45.756;11.432;2023-03-23T01:57:31;42.63;;;23.90;;
23179;SDS011;11758;45.756;11.432;2023-03-23T01:59:58;41.05;;;23.83;;
23179;SDS011;11758;45.756;11.432;2023-03-23T02:02:25;42.53;;;25.60;;
23179;SDS011;11758;45.756;11.432;2023-03-23T02:04:52;37.03;;;23.90;;
23179;SDS011;11758;45.756;11.432;2023-03-23T02:07:21;38.85;;;24.27;;
23179;SDS011;11758;45.756;11.432;2023-03-23T02:09:49;42.92;;;25.30;;
23179;SDS011;11758;45.756;11.432;2023-03-23T02:12:15;38.20;;;23.52;;
23179;SDS011;11758;45.756;11.432;2023-03-23T02:14:41;42.80;;;24.00;;
23179;SDS011;11758;45.756;11.432;2023-03-23T02:17:09;40.85;;;24.08;;
23179;SDS011;11758;45.756;11.432;2023-03-23T02:19:55;42.78;;;24.75;;
23179;SDS011;11758;45.756;11.432;2023-03-23T02:35:54;39.17;;;23.17;;
23179;SDS011;11758;45.756;11.432;2023-03-23T02:38:25;38.58;;;23.65;;
23179;SDS011;11758;45.756;11.432;2023-03-23T02:40:54;41.50;;;24.52;;
23179;SDS011;11758;45.756;11.432;2023-03-23T02:43:22;37.67;;;22.50;;
23179;SDS011;11758;45.756;11.432;2023-03-23T02:45:49;40.90;;;21.83;;
23179;SDS011;11758;45.756;11.432;2023-03-23T02:48:17;33.85;;;21.50;;
23179;SDS011;11758;45.756;11.432;2023-03-23T02:50:45;42.72;;;22.73;;
23179;SDS011;11758;45.756;11.432;2023-03-23T02:53:13;40.83;;;22.63;;
23179;SDS011;11758;45.756;11.432;2023-03-23T02:55:41;37.63;;;21.85;;
23179;SDS011;11758;45.756;11.432;2023-03-23T02:58:09;37.00;;;22.23;;
23179;SDS011;11758;45.756;11.432;2023-03-23T03:00:36;36.13;;;22.80;;
23179;SDS011;11758;45.756;11.432;2023-03-23T03:03:02;42.28;;;23.45;;
23179;SDS011;11758;45.756;11.432;2023-03-23T03:05:49;36.78;;;22.60;;
23179;SDS011;11758;45.756;11.432;2023-03-23T03:08:23;40.05;;;22.13;;
23179;SDS011;11758;45.756;11.432;2023-03-23T03:13:25;38.28;;;22.00;;
23179;SDS011;11758;45.756;11.432;2023-03-23T03:16:05;40.53;;;21.83;;
23179;SDS011;11758;45.756;11.432;2023-03-23T03:18:43;34.10;;;20.95;;
23179;SDS011;11758;45.756;11.432;2023-03-23T03:21:12;41.45;;;23.17;;
23179;SDS011;11758;45.756;11.432;2023-03-23T03:23:39;40.78;;;22.98;;
23179;SDS011;11758;45.756;11.432;2023-03-23T03:26:07;40.70;;;23.67;;
23179;SDS011;11758;45.756;11.432;2023-03-23T03:28:34;40.78;;;23.10;;
23179;SDS011;11758;45.756;11.432;2023-03-23T03:31:02;42.75;;;23.63;;
23179;SDS011;11758;45.756;11.432;2023-03-23T03:33:29;39.55;;;22.98;;
23179;SDS011;11758;45.756;11.432;2023-03-23T03:36:00;37.88;;;23.38;;
23179;SDS011;11758;45.756;11.432;2023-03-23T03:38:27;39.22;;;22.67;;
23179;SDS011;11758;45.756;11.432;2023-03-23T03:40:54;40.00;;;22.80;;
23179;SDS011;11758;45.756;11.432;2023-03-23T03:43:20;40.08;;;23.58;;
23179;SDS011;11758;45.756;11.432;2023-03-23T03:45:46;39.75;;;23.27;;
23179;SDS011;11758;45.756;11.432;2023-03-23T03:48:13;41.40;;;23.30;;
23179;SDS011;11758;45.756;11.432;2023-03-23T03:50:39;41.28;;;23.35;;
23179;SDS011;11758;45.756;11.432;2023-03-23T03:53:06;48.38;;;23.15;;
23179;SDS011;11758;45.756;11.432;2023-03-23T03:55:32;40.85;;;23.75;;
23179;SDS011;11758;45.756;11.432;2023-03-23T03:58:03;44.55;;;23.00;;
23179;SDS011;11758;45.756;11.432;2023-03-23T04:00:30;42.33;;;22.85;;
23179;SDS011;11758;45.756;11.432;2023-03-23T04:02:56;44.22;;;24.48;;
23179;SDS011;11758;45.756;11.432;2023-03-23T04:05:25;35.92;;;23.00;;
23179;SDS011;11758;45.756;11.432;2023-03-23T04:07:54;42.25;;;22.42;;
23179;SDS011;11758;45.756;11.432;2023-03-23T04:10:26;39.88;;;23.10;;
23179;SDS011;11758;45.756;11.432;2023-03-23T04:12:52;40.10;;;23.42;;
23179;SDS011;11758;45.756;11.432;2023-03-23T04:15:18;39.97;;;22.50;;
23179;SDS011;11758;45.756;11.432;2023-03-23T04:17:44;35.67;;;21.63;;
23179;SDS011;11758;45.756;11.432;2023-03-23T04:20:11;45.45;;;24.17;;
23179;SDS011;11758;45.756;11.432;2023-03-23T04:22:41;41.85;;;23.60;;
23179;SDS011;11758;45.756;11.432;2023-03-23T04:25:09;34.28;;;21.58;;
23179;SDS011;11758;45.756;11.432;2023-03-23T04:27:37;41.30;;;24.55;;
23179;SDS011;11758;45.756;11.432;2023-03-23T04:30:03;39.15;;;23.80;;
23179;SDS011;11758;45.756;11.432;2023-03-23T04:32:29;42.35;;;23.63;;
23179;SDS011;11758;45.756;11.432;2023-03-23T04:34:56;39.80;;;23.98;;
23179;SDS011;11758;45.756;11.432;2023-03-23T04:37:23;41.63;;;23.13;;
23179;SDS011;11758;45.756;11.432;2023-03-23T04:39:56;43.90;;;24.10;;
23179;SDS011;11758;45.756;11.432;2023-03-23T04:42:29;45.67;;;23.58;;
23179;SDS011;11758;45.756;11.432;2023-03-23T04:44:59;38.30;;;22.63;;
23179;SDS011;11758;45.756;11.432;2023-03-23T04:47:27;45.65;;;25.65;;
23179;SDS011;11758;45.756;11.432;2023-03-23T04:49:54;45.35;;;24.73;;
23179;SDS011;11758;45.756;11.432;2023-03-23T04:52:21;39.78;;;24.25;;
23179;SDS011;11758;45.756;11.432;2023-03-23T04:54:47;39.35;;;23.88;;
23179;SDS011;11758;45.756;11.432;2023-03-23T04:57:13;37.22;;;22.83;;
23179;SDS011;11758;45.756;11.432;2023-03-23T04:59:40;41.10;;;24.45;;
23179;SDS011;11758;45.756;11.432;2023-03-23T05:02:06;47.75;;;24.85;;
23179;SDS011;11758;45.756;11.432;2023-03-23T05:04:32;41.13;;;23.77;;
23179;SDS011;11758;45.756;11.432;2023-03-23T05:06:58;38.92;;;23.50;;
23179;SDS011;11758;45.756;11.432;2023-03-23T05:09:25;40.97;;;23.27;;
23179;SDS011;11758;45.756;11.432;2023-03-23T05:11:51;41.55;;;24.63;;
23179;SDS011;11758;45.756;11.432;2023-03-23T05:14:17;41.80;;;24.25;;
23179;SDS011;11758;45.756;11.432;2023-03-23T05:16:43;43.92;;;24.23;;
23179;SDS011;11758;45.756;11.432;2023-03-23T05:19:13;40.28;;;23.02;;
23179;SDS011;11758;45.756;11.432;2023-03-23T05:21:39;41.60;;;24.13;;
23179;SDS011;11758;45.756;11.432;2023-03-23T05:24:06;44.10;;;25.45;;
23179;SDS011;11758;45.756;11.432;2023-03-23T05:26:33;41.88;;;24.42;;
23179;SDS011;11758;45.756;11.432;2023-03-23T05:28:59;43.05;;;24.50;;
23179;SDS011;11758;45.756;11.432;2023-03-23T05:31:25;41.05;;;23.92;;
23179;SDS011;11758;45.756;11.432;2023-03-23T05:33:51;44.00;;;24.52;;
23179;SDS011;11758;45.756;11.432;2023-03-23T05:36:17;40.53;;;24.45;;
23179;SDS011;11758;45.756;11.432;2023-03-23T05:38:44;39.63;;;24.20;;
23179;SDS011;11758;45.756;11.432;2023-03-23T05:41:14;47.50;;;24.58;;
23179;SDS011;11758;45.756;11.432;2023-03-23T05:43:40;48.75;;;25.63;;
23179;SDS011;11758;45.756;11.432;2023-03-23T05:46:07;41.67;;;24.52;;
23179;SDS011;11758;45.756;11.432;2023-03-23T05:48:33;43.35;;;25.77;;
23179;SDS011;11758;45.756;11.432;2023-03-23T05:50:59;44.78;;;24.45;;
23179;SDS011;11758;45.756;11.432;2023-03-23T05:53:26;42.00;;;25.02;;
23179;SDS011;11758;45.756;11.432;2023-03-23T05:55:52;46.55;;;25.55;;
23179;SDS011;11758;45.756;11.432;2023-03-23T05:58:18;41.92;;;25.35;;
23179;SDS011;11758;45.756;11.432;2023-03-23T06:00:45;37.00;;;23.63;;
23179;SDS011;11758;45.756;11.432;2023-03-23T06:03:11;40.55;;;24.00;;
23179;SDS011;11758;45.756;11.432;2023-03-23T06:05:44;42.15;;;24.35;;
23179;SDS011;11758;45.756;11.432;2023-03-23T06:08:10;40.83;;;24.48;;
23179;SDS011;11758;45.756;11.432;2023-03-23T06:10:37;52.60;;;25.10;;
23179;SDS011;11758;45.756;11.432;2023-03-23T06:13:04;48.88;;;23.63;;
23179;SDS011;11758;45.756;11.432;2023-03-23T06:15:30;39.28;;;23.67;;
23179;SDS011;11758;45.756;11.432;2023-03-23T06:18:03;38.50;;;21.48;;
23179;SDS011;11758;45.756;11.432;2023-03-23T06:20:30;40.45;;;24.05;;
23179;SDS011;11758;45.756;11.432;2023-03-23T06:22:57;45.78;;;23.92;;
23179;SDS011;11758;45.756;11.432;2023-03-23T06:25:24;43.10;;;23.75;;
23179;SDS011;11758;45.756;11.432;2023-03-23T06:27:50;43.88;;;23.30;;
23179;SDS011;11758;45.756;11.432;2023-03-23T06:30:17;40.72;;;23.67;;
23179;SDS011;11758;45.756;11.432;2023-03-23T06:32:43;45.20;;;24.40;;
23179;SDS011;11758;45.756;11.432;2023-03-23T06:35:12;44.20;;;24.95;;
23179;SDS011;11758;45.756;11.432;2023-03-23T06:37:38;42.45;;;24.23;;
23179;SDS011;11758;45.756;11.432;2023-03-23T06:40:05;46.55;;;23.55;;
23179;SDS011;11758;45.756;11.432;2023-03-23T06:42:31;41.83;;;24.70;;
23179;SDS011;11758;45.756;11.432;2023-03-23T06:44:58;45.45;;;23.00;;
23179;SDS011;11758;45.756;11.432;2023-03-23T06:47:25;46.10;;;24.08;;
23179;SDS011;11758;45.756;11.432;2023-03-23T06:49:52;40.95;;;22.33;;
23179;SDS011;11758;45.756;11.432;2023-03-23T06:52:18;40.88;;;23.15;;
23179;SDS011;11758;45.756;11.432;2023-03-23T06:54:44;40.80;;;22.50;;
23179;SDS011;11758;45.756;11.432;2023-03-23T06:57:11;37.97;;;23.20;;
23179;SDS011;11758;45.756;11.432;2023-03-23T06:59:37;39.13;;;23.52;;
23179;SDS011;11758;45.756;11.432;2023-03-23T07:02:03;38.58;;;24.83;;
23179;SDS011;11758;45.756;11.432;2023-03-23T07:04:29;40.92;;;24.08;;
23179;SDS011;11758;45.756;11.432;2023-03-23T07:06:55;40.63;;;24.83;;
23179;SDS011;11758;45.756;11.432;2023-03-23T07:09:21;50.72;;;27.10;;
23179;SDS011;11758;45.756;11.432;2023-03-23T07:11:47;42.88;;;23.45;;
23179;SDS011;11758;45.756;11.432;2023-03-23T07:14:16;47.58;;;25.77;;
23179;SDS011;11758;45.756;11.432;2023-03-23T07:16:42;49.88;;;25.67;;
23179;SDS011;11758;45.756;11.432;2023-03-23T07:19:08;43.72;;;25.27;;
23179;SDS011;11758;45.756;11.432;2023-03-23T07:21:35;42.83;;;23.50;;
23179;SDS011;11758;45.756;11.432;2023-03-23T07:24:01;40.03;;;25.23;;
23179;SDS011;11758;45.756;11.432;2023-03-23T07:26:27;48.30;;;25.48;;
23179;SDS011;11758;45.756;11.432;2023-03-23T07:28:53;51.47;;;25.95;;
23179;SDS011;11758;45.756;11.432;2023-03-23T07:31:20;40.50;;;24.58;;
23179;SDS011;11758;45.756;11.432;2023-03-23T07:33:47;44.42;;;26.17;;
23179;SDS011;11758;45.756;11.432;2023-03-23T07:36:13;38.38;;;23.75;;
23179;SDS011;11758;45.756;11.432;2023-03-23T07:38:39;48.10;;;25.20;;
23179;SDS011;11758;45.756;11.432;2023-03-23T07:41:06;46.67;;;24.80;;
23179;SDS011;11758;45.756;11.432;2023-03-23T07:43:32;42.30;;;24.20;;
23179;SDS011;11758;45.756;11.432;2023-03-23T07:45:58;44.95;;;24.60;;
23179;SDS011;11758;45.756;11.432;2023-03-23T07:48:24;40.08;;;23.67;;
23179;SDS011;11758;45.756;11.432;2023-03-23T07:50:52;40.60;;;23.13;;
23179;SDS011;11758;45.756;11.432;2023-03-23T07:53:19;43.17;;;23.80;;
23179;SDS011;11758;45.756;11.432;2023-03-23T07:55:47;45.50;;;25.98;;
23179;SDS011;11758;45.756;11.432;2023-03-23T07:58:13;34.50;;;22.30;;
23179;SDS011;11758;45.756;11.432;2023-03-23T08:00:44;41.13;;;24.60;;
23179;SDS011;11758;45.756;11.432;2023-03-23T08:03:10;39.63;;;23.83;;
23179;SDS011;11758;45.756;11.432;2023-03-23T08:05:37;41.03;;;24.27;;
23179;SDS011;11758;45.756;11.432;2023-03-23T08:08:03;41.55;;;24.25;;
23179;SDS011;11758;45.756;11.432;2023-03-23T08:10:30;41.17;;;24.25;;
23179;SDS011;11758;45.756;11.432;2023-03-23T08:12:56;45.38;;;24.38;;
23179;SDS011;11758;45.756;11.432;2023-03-23T08:15:24;48.22;;;25.20;;
23179;SDS011;11758;45.756;11.432;2023-03-23T08:17:51;47.85;;;25.23;;
23179;SDS011;11758;45.756;11.432;2023-03-23T08:20:18;44.72;;;25.23;;
23179;SDS011;11758;45.756;11.432;2023-03-23T08:22:45;43.65;;;25.98;;
23179;SDS011;11758;45.756;11.432;2023-03-23T08:25:12;42.50;;;27.75;;
23179;SDS011;11758;45.756;11.432;2023-03-23T08:27:43;49.15;;;28.55;;
23179;SDS011;11758;45.756;11.432;2023-03-23T08:30:13;51.90;;;29.70;;
23179;SDS011;11758;45.756;11.432;2023-03-23T08:32:40;51.05;;;30.02;;
23179;SDS011;11758;45.756;11.432;2023-03-23T08:35:07;45.28;;;29.52;;
23179;SDS011;11758;45.756;11.432;2023-03-23T08:37:34;51.53;;;30.38;;
23179;SDS011;11758;45.756;11.432;2023-03-23T08:40:00;44.33;;;26.95;;
23179;SDS011;11758;45.756;11.432;2023-03-23T08:42:32;54.47;;;26.83;;
23179;SDS011;11758;45.756;11.432;2023-03-23T08:44:58;45.17;;;25.52;;
23179;SDS011;11758;45.756;11.432;2023-03-23T08:47:24;41.70;;;25.80;;
23179;SDS011;11758;45.756;11.432;2023-03-23T08:49:51;46.85;;;27.40;;
23179;SDS011;11758;45.756;11.432;2023-03-23T08:52:19;43.15;;;26.50;;
23179;SDS011;11758;45.756;11.432;2023-03-23T08:54:46;45.15;;;26.10;;
23179;SDS011;11758;45.756;11.432;2023-03-23T08:57:12;40.83;;;25.77;;
23179;SDS011;11758;45.756;11.432;2023-03-23T08:59:43;43.17;;;24.95;;
23179;SDS011;11758;45.756;11.432;2023-03-23T09:02:10;40.10;;;25.30;;
23179;SDS011;11758;45.756;11.432;2023-03-23T09:04:40;49.78;;;27.10;;
23179;SDS011;11758;45.756;11.432;2023-03-23T09:07:10;44.15;;;26.73;;
23179;SDS011;11758;45.756;11.432;2023-03-23T09:09:38;41.88;;;27.70;;
23179;SDS011;11758;45.756;11.432;2023-03-23T09:12:05;44.10;;;27.38;;
23179;SDS011;11758;45.756;11.432;2023-03-23T09:14:31;46.35;;;29.00;;
23179;SDS011;11758;45.756;11.432;2023-03-23T09:16:57;44.00;;;27.80;;
23179;SDS011;11758;45.756;11.432;2023-03-23T09:19:23;43.95;;;28.40;;
23179;SDS011;11758;45.756;11.432;2023-03-23T09:21:50;47.33;;;28.67;;
23179;SDS011;11758;45.756;11.432;2023-03-23T09:24:16;54.00;;;29.98;;
23179;SDS011;11758;45.756;11.432;2023-03-23T09:26:42;49.65;;;29.67;;
23179;SDS011;11758;45.756;11.432;2023-03-23T09:29:08;47.75;;;30.20;;
23179;SDS011;11758;45.756;11.432;2023-03-23T09:31:35;48.38;;;28.48;;
23179;SDS011;11758;45.756;11.432;2023-03-23T09:34:01;58.95;;;32.72;;
23179;SDS011;11758;45.756;11.432;2023-03-23T09:36:29;54.38;;;30.45;;
23179;SDS011;11758;45.756;11.432;2023-03-23T09:38:55;50.35;;;29.92;;
23179;SDS011;11758;45.756;11.432;2023-03-23T09:49:17;53.30;;;32.63;;
23179;SDS011;11758;45.756;11.432;2023-03-23T09:51:53;57.53;;;33.58;;
23179;SDS011;11758;45.756;11.432;2023-03-23T09:54:35;52.40;;;32.78;;
23179;SDS011;11758;45.756;11.432;2023-03-23T09:57:01;49.33;;;31.70;;
23179;SDS011;11758;45.756;11.432;2023-03-23T09:59:37;52.85;;;30.35;;
23179;SDS011;11758;45.756;11.432;2023-03-23T10:04:44;50.72;;;30.85;;
23179;SDS011;11758;45.756;11.432;2023-03-23T10:07:13;48.38;;;31.60;;
23179;SDS011;11758;45.756;11.432;2023-03-23T10:09:40;49.75;;;32.38;;
23179;SDS011;11758;45.756;11.432;2023-03-23T10:15:03;52.10;;;31.73;;
23179;SDS011;11758;45.756;11.432;2023-03-23T10:17:37;50.85;;;32.45;;
23179;SDS011;11758;45.756;11.432;2023-03-23T10:22:45;50.97;;;31.30;;
23179;SDS011;11758;45.756;11.432;2023-03-23T10:27:45;54.05;;;32.30;;
23179;SDS011;11758;45.756;11.432;2023-03-23T10:30:15;54.90;;;32.42;;
23179;SDS011;11758;45.756;11.432;2023-03-23T10:35:20;55.08;;;31.92;;
23179;SDS011;11758;45.756;11.432;2023-03-23T10:37:50;53.50;;;31.55;;
23179;SDS011;11758;45.756;11.432;2023-03-23T10:40:19;59.97;;;32.72;;
23179;SDS011;11758;45.756;11.432;2023-03-23T10:42:48;51.63;;;32.58;;
23179;SDS011;11758;45.756;11.432;2023-03-23T10:48:35;55.80;;;32.85;;
23179;SDS011;11758;45.756;11.432;2023-03-23T10:50:35;58.42;;;31.48;;
23179;SDS011;11758;45.756;11.432;2023-03-23T10:53:03;52.10;;;31.40;;
23179;SDS011;11758;45.756;11.432;2023-03-23T10:55:38;50.95;;;31.02;;
23179;SDS011;11758;45.756;11.432;2023-03-23T10:58:06;50.50;;;31.08;;
23179;SDS011;11758;45.756;11.432;2023-03-23T11:00:39;47.67;;;30.13;;
23179;SDS011;11758;45.756;11.432;2023-03-23T11:03:52;46.15;;;30.50;;
23179;SDS011;11758;45.756;11.432;2023-03-23T11:06:03;42.10;;;27.38;;
23179;SDS011;11758;45.756;11.432;2023-03-23T11:08:46;49.33;;;30.15;;
23179;SDS011;11758;45.756;11.432;2023-03-23T11:11:19;48.05;;;30.17;;
23179;SDS011;11758;45.756;11.432;2023-03-23T11:13:47;52.35;;;28.88;;
23179;SDS011;11758;45.756;11.432;2023-03-23T11:16:23;42.15;;;28.58;;
23179;SDS011;11758;45.756;11.432;2023-03-23T11:18:50;44.47;;;29.30;;
23179;SDS011;11758;45.756;11.432;2023-03-23T11:21:17;48.08;;;29.77;;
23179;SDS011;11758;45.756;11.432;2023-03-23T11:24:03;50.17;;;30.75;;
23179;SDS011;11758;45.756;11.432;2023-03-23T11:26:32;52.10;;;31.25;;
23179;SDS011;11758;45.756;11.432;2023-03-23T11:29:06;48.15;;;31.67;;
23179;SDS011;11758;45.756;11.432;2023-03-23T11:31:36;48.55;;;29.67;;
23179;SDS011;11758;45.756;11.432;2023-03-23T11:34:14;47.90;;;30.85;;
23179;SDS011;11758;45.756;11.432;2023-03-23T11:36:52;49.17;;;31.38;;
23179;SDS011;11758;45.756;11.432;2023-03-23T11:39:24;52.38;;;33.10;;
23179;SDS011;11758;45.756;11.432;2023-03-23T11:41:51;53.03;;;32.35;;
23179;SDS011;11758;45.756;11.432;2023-03-23T11:44:17;59.22;;;34.08;;
23179;SDS011;11758;45.756;11.432;2023-03-23T11:46:46;54.95;;;33.55;;
23179;SDS011;11758;45.756;11.432;2023-03-23T11:52:08;50.17;;;30.23;;
23179;SDS011;11758;45.756;11.432;2023-03-23T11:54:39;53.58;;;34.80;;
23179;SDS011;11758;45.756;11.432;2023-03-23T11:57:08;58.00;;;36.30;;
23179;SDS011;11758;45.756;11.432;2023-03-23T11:59:36;52.85;;;34.75;;
23179;SDS011;11758;45.756;11.432;2023-03-23T12:15:17;56.03;;;32.47;;
23179;SDS011;11758;45.756;11.432;2023-03-23T12:22:50;51.50;;;33.05;;
23179;SDS011;11758;45.756;11.432;2023-03-23T12:30:39;48.28;;;32.38;;
23179;SDS011;11758;45.756;11.432;2023-03-23T12:41:01;47.97;;;32.35;;
23179;SDS011;11758;45.756;11.432;2023-03-23T12:43:45;45.83;;;28.92;;
23179;SDS011;11758;45.756;11.432;2023-03-23T12:48:44;45.38;;;30.23;;
23179;SDS011;11758;45.756;11.432;2023-03-23T12:58:47;45.20;;;29.60;;
23179;SDS011;11758;45.756;11.432;2023-03-23T13:01:18;44.00;;;30.52;;
23179;SDS011;11758;45.756;11.432;2023-03-23T13:03:55;46.88;;;29.65;;
23179;SDS011;11758;45.756;11.432;2023-03-23T13:06:26;43.55;;;29.80;;
23179;SDS011;11758;45.756;11.432;2023-03-23T13:09:05;44.70;;;30.08;;
23179;SDS011;11758;45.756;11.432;2023-03-23T13:11:37;47.80;;;29.17;;
23179;SDS011;11758;45.756;11.432;2023-03-23T13:14:08;45.63;;;28.08;;
23179;SDS011;11758;45.756;11.432;2023-03-23T13:17:00;41.58;;;27.38;;
23179;SDS011;11758;45.756;11.432;2023-03-23T13:24:15;38.08;;;26.92;;
23179;SDS011;11758;45.756;11.432;2023-03-23T13:26:43;41.67;;;26.95;;
23179;SDS011;11758;45.756;11.432;2023-03-23T13:29:13;37.05;;;26.80;;
23179;SDS011;11758;45.756;11.432;2023-03-23T13:31:40;37.85;;;26.80;;
23179;SDS011;11758;45.756;11.432;2023-03-23T13:34:22;38.40;;;28.63;;
23179;SDS011;11758;45.756;11.432;2023-03-23T13:36:54;39.97;;;27.88;;
23179;SDS011;11758;45.756;11.432;2023-03-23T13:39:22;39.00;;;27.02;;
23179;SDS011;11758;45.756;11.432;2023-03-23T13:44:26;43.95;;;29.52;;
23179;SDS011;11758;45.756;11.432;2023-03-23T13:47:14;43.53;;;29.52;;
23179;SDS011;11758;45.756;11.432;2023-03-23T13:49:52;44.97;;;28.85;;
23179;SDS011;11758;45.756;11.432;2023-03-23T13:54:47;36.15;;;27.35;;
23179;SDS011;11758;45.756;11.432;2023-03-23T13:57:23;42.75;;;28.50;;
23179;SDS011;11758;45.756;11.432;2023-03-23T13:59:55;43.80;;;31.08;;
23179;SDS011;11758;45.756;11.432;2023-03-23T14:02:32;47.78;;;31.75;;
23179;SDS011;11758;45.756;11.432;2023-03-23T14:05:11;46.78;;;30.40;;
23179;SDS011;11758;45.756;11.432;2023-03-23T14:07:53;44.47;;;29.73;;
23179;SDS011;11758;45.756;11.432;2023-03-23T14:10:20;44.72;;;29.25;;
23179;SDS011;11758;45.756;11.432;2023-03-23T14:12:48;43.70;;;29.92;;
23179;SDS011;11758;45.756;11.432;2023-03-23T14:15:28;47.53;;;30.10;;
23179;SDS011;11758;45.756;11.432;2023-03-23T14:17:54;44.17;;;30.58;;
23179;SDS011;11758;45.756;11.432;2023-03-23T14:20:29;42.95;;;30.48;;
23179;SDS011;11758;45.756;11.432;2023-03-23T14:23:01;52.63;;;31.73;;
23179;SDS011;11758;45.756;11.432;2023-03-23T14:25:29;49.60;;;30.40;;
23179;SDS011;11758;45.756;11.432;2023-03-23T14:28:00;41.08;;;28.95;;
23179;SDS011;11758;45.756;11.432;2023-03-23T14:30:27;45.85;;;31.38;;
23179;SDS011;11758;45.756;11.432;2023-03-23T14:33:04;46.88;;;29.70;;
23179;SDS011;11758;45.756;11.432;2023-03-23T14:35:33;43.00;;;30.38;;
23179;SDS011;11758;45.756;11.432;2023-03-23T14:38:01;46.55;;;30.63;;
23179;SDS011;11758;45.756;11.432;2023-03-23T14:40:31;47.42;;;30.02;;
23179;SDS011;11758;45.756;11.432;2023-03-23T14:43:05;41.50;;;27.55;;
23179;SDS011;11758;45.756;11.432;2023-03-23T14:45:34;47.50;;;28.83;;
23179;SDS011;11758;45.756;11.432;2023-03-23T14:48:00;44.97;;;29.73;;
23179;SDS011;11758;45.756;11.432;2023-03-23T14:50:30;47.58;;;29.88;;
23179;SDS011;11758;45.756;11.432;2023-03-23T14:53:00;43.92;;;29.63;;
23179;SDS011;11758;45.756;11.432;2023-03-23T14:55:27;44.75;;;29.85;;
23179;SDS011;11758;45.756;11.432;2023-03-23T14:57:56;49.33;;;30.25;;
23179;SDS011;11758;45.756;11.432;2023-03-23T15:00:33;47.35;;;30.00;;
23179;SDS011;11758;45.756;11.432;2023-03-23T15:03:01;40.80;;;28.70;;
23179;SDS011;11758;45.756;11.432;2023-03-23T15:05:29;40.20;;;29.02;;
23179;SDS011;11758;45.756;11.432;2023-03-23T15:08:01;45.00;;;30.75;;
23179;SDS011;11758;45.756;11.432;2023-03-23T15:10:29;49.88;;;30.25;;
23179;SDS011;11758;45.756;11.432;2023-03-23T15:12:56;44.03;;;29.80;;
23179;SDS011;11758;45.756;11.432;2023-03-23T15:18:04;47.30;;;29.92;;
23179;SDS011;11758;45.756;11.432;2023-03-23T15:20:31;47.53;;;30.52;;
23179;SDS011;11758;45.756;11.432;2023-03-23T15:23:07;49.88;;;31.55;;
23179;SDS011;11758;45.756;11.432;2023-03-23T15:25:36;46.65;;;32.67;;
23179;SDS011;11758;45.756;11.432;2023-03-23T15:28:16;47.22;;;32.30;;
23179;SDS011;11758;45.756;11.432;2023-03-23T15:30:50;48.03;;;31.30;;
23179;SDS011;11758;45.756;11.432;2023-03-23T15:33:17;43.97;;;29.90;;
23179;SDS011;11758;45.756;11.432;2023-03-23T15:35:49;48.40;;;31.25;;
23179;SDS011;11758;45.756;11.432;2023-03-23T15:38:23;49.58;;;31.30;;
23179;SDS011;11758;45.756;11.432;2023-03-23T15:40:50;47.22;;;31.77;;
23179;SDS011;11758;45.756;11.432;2023-03-23T15:48:18;52.47;;;30.52;;
23179;SDS011;11758;45.756;11.432;2023-03-23T15:50:45;44.20;;;29.55;;
23179;SDS011;11758;45.756;11.432;2023-03-23T15:53:19;45.45;;;30.90;;
23179;SDS011;11758;45.756;11.432;2023-03-23T15:55:47;46.45;;;30.52;;
23179;SDS011;11758;45.756;11.432;2023-03-23T15:58:13;55.38;;;31.63;;
23179;SDS011;11758;45.756;11.432;2023-03-23T16:00:40;46.78;;;29.92;;
23179;SDS011;11758;45.756;11.432;2023-03-23T16:03:09;47.05;;;30.50;;